Reklama

Seznam meteostanic a jejich METAR

Vyhledat místa podle abecedy:
A B C D E F G H I J K L M N O P Q R S T U V W X Y Z

Filtrovat:

ID stanice:
a/nebo
Název místa (fulltext):
 
Místo (ID)Naposledy načteno 
Brno - Tuřany (Brno/Tu) 27.01.2020 10:00 UTC Zobrazit data
Místo: Brno - Tuřany
Teplota: -1 °C (pocitová: -7.2 °C)
Vítr: 2 m/s z(e) 230°
Počasí: zataženo
Dohlednost: 1500 m
Zákl. oblačnosti: 8/8 60 m
Vlhkost: 100%
Červená - Opava (Cervena/uL) 27.01.2020 19:00 UTC Zobrazit data
Místo: Červená - Opava
Teplota: -1 °C (pocitová: -10.6 °C)
Vítr: 5 m/s z(e) 210°
Počasí: mlha
Dohlednost: 200 m
Zákl. oblačnosti: 7/8 30 m
Vlhkost: 93%
České Budějovice (C.Budej/po) 27.01.2020 21:00 UTC Zobrazit data
Místo: České Budějovice
Teplota: 3 °C (pocitová: -2.1 °C)
Vítr: 2 m/s z(e) 140°
Počasí: zataženo
Dohlednost: 24 km
Zákl. oblačnosti: 8/8 2400 m
Vlhkost: 81%
Cheb (Cheb) 27.01.2020 21:00 UTC Zobrazit data
Místo: Cheb
Teplota: 4 °C (pocitová: -2.9 °C)
Vítr: 4 m/s z(e) 190°
Počasí: přeháňky
Dohlednost: 10 km
Zákl. oblačnosti: 8/8 330 m
Vlhkost: 93%
Chotusice - Čáslav (Caslav) 27.01.2020 21:00 UTC Zobrazit data
Místo: Chotusice - Čáslav
Teplota: 1 °C (pocitová: -7 °C)
Vítr: 4 m/s z(e) 130°
Počasí: zataženo
Dohlednost: 10 km
Zákl. oblačnosti: 8/8 2700 m
Vlhkost: 93%
Churáňov (Churanov) 27.01.2020 21:00 UTC Zobrazit data
Místo: Churáňov
Teplota: 1 °C (pocitová: -7 °C)
Vítr: 4 m/s z(e) 210°
Počasí: zataženo
Dohlednost: 35 km
Zákl. oblačnosti: 8/8 2100 m
Vlhkost: 87%
Doksany - Litoměřice (Doksany) 27.01.2020 21:00 UTC Zobrazit data
Místo: Doksany - Litoměřice
Teplota: 1 °C (pocitová: -3.1 °C)
Vítr: 1 m/s z(e) 60°
Počasí: zataženo
Dohlednost: 4100 m
Zákl. oblačnosti: 8/8 1500 m
Vlhkost: 100%
Dukovany (Dukovany) 27.01.2020 21:00 UTC Zobrazit data
Místo: Dukovany
Teplota: -1 °C (pocitová: -9.8 °C)
Vítr: 4 m/s z(e) 90°
Počasí: déšť
Dohlednost: 100 m
Zákl. oblačnosti: 8/8 30 m
Vlhkost: 100%
Holešov (Holesov) 27.01.2020 21:00 UTC Zobrazit data
Místo: Holešov
Teplota: 0 °C (pocitová: -9.2 °C)
Vítr: 5 m/s z(e) 160°
Počasí: zataženo
Dohlednost: 3600 m
Zákl. oblačnosti: 8/8 60 m
Vlhkost: 93%
Kadaň - Tušimice (Tusimice) 27.01.2020 07:00 UTC Zobrazit data
Místo: Kadaň - Tušimice
Teplota: 0 °C (pocitová: -4.3 °C)
Vítr: 1 m/s z(e) 90°
Počasí: zataženo
Dohlednost: 1200 m
Zákl. oblačnosti: 8/8 60 m
Vlhkost: 100%
Karlovy Vary (K.Vary) 27.01.2020 21:00 UTC Zobrazit data
Místo: Karlovy Vary
Teplota: 3 °C (pocitová: -3.3 °C)
Vítr: 3 m/s z(e) 190°
Počasí: zataženo
Dohlednost: 10 km
Zákl. oblačnosti: 6/8 480 m
Vlhkost: 93%
Kocelovice (Kocelovice) 27.01.2020 21:00 UTC Zobrazit data
Místo: Kocelovice
Teplota: 1 °C (pocitová: -4.6 °C)
Vítr: 2 m/s z(e) 130°
Počasí: zataženo
Dohlednost: 4800 m
Zákl. oblačnosti: 8/8 2100 m
Vlhkost: 93%
Kopisty (Kopisty) 27.01.2020 21:00 UTC Zobrazit data
Místo: Kopisty
Teplota: 1 °C (pocitová: 13.8 °C)
Vítr: 0 m/s z(e) 0°
Počasí: déšť
Dohlednost: 1300 m
Zákl. oblačnosti: 8/8 120 m
Vlhkost: 100%
Kostelní Myslová (K.Myslova) 27.01.2020 21:00 UTC Zobrazit data
Místo: Kostelní Myslová
Teplota: -2 °C (pocitová: -6.7 °C)
Vítr: 1 m/s z(e) 100°
Počasí: mlha
Dohlednost: 100 m
Zákl. oblačnosti: 8/8 30 m
Vlhkost: 100%
Křešín - Kramolín (Kramolin) 27.01.2020 21:00 UTC Zobrazit data
Místo: Křešín - Kramolín
Teplota: 1 °C (pocitová: -3.1 °C)
Vítr: 1 m/s z(e) 0°
Počasí: zataženo
Dohlednost: 10 km
Zákl. oblačnosti: 8/8 3000 m
Vlhkost: 93%
Kuchařovice - Znojmo (Kucharovic) 27.01.2020 21:00 UTC Zobrazit data
Místo: Kuchařovice - Znojmo
Teplota: -1 °C (pocitová: -9.8 °C)
Vítr: 4 m/s z(e) 100°
Počasí: mlha
Dohlednost: 100 m
Zákl. oblačnosti: 8/8 30 m
Vlhkost: 100%
Liberec (Liberec) 27.01.2020 21:00 UTC Zobrazit data
Místo: Liberec
Teplota: 2 °C (pocitová: -5.6 °C)
Vítr: 4 m/s z(e) 130°
Počasí: zataženo
Dohlednost: 7 km
Zákl. oblačnosti: 8/8 270 m
Vlhkost: 87%
Luká (Luka) 27.01.2020 21:00 UTC Zobrazit data
Místo: Luká
Teplota: -1 °C (pocitová: -8.7 °C)
Vítr: 3 m/s z(e) 130°
Počasí: mlha
Dohlednost: 100 m
Zákl. oblačnosti: 8/8 30 m
Vlhkost: 93%
Lysá Hora (Lysa Hora) 27.01.2020 20:00 UTC Zobrazit data
Místo: Lysá Hora
Teplota: -1 °C (pocitová: -10.6 °C)
Vítr: 5 m/s z(e) 220°
Počasí: skorojasno
Dohlednost: 40 km
Zákl. oblačnosti: 1/8 300 m
Vlhkost: 100%
Milešovka (Milesovka) 26.01.2020 18:00 UTC Zobrazit data
Místo: Milešovka
Teplota: 0 °C (pocitová: -10.4 °C)
Vítr: 7 m/s z(e) 240°
Počasí: zataženo
Dohlednost: 30 km
Zákl. oblačnosti: 8/8 1800 m
Vlhkost: 93%
Mošnov (Ostrava/Mo) 27.01.2020 21:00 UTC Zobrazit data
Místo: Mošnov
Teplota: 0 °C (pocitová: -10.4 °C)
Vítr: 7 m/s z(e) 230°
Počasí: mlha
Dohlednost: 800 m
Zákl. oblačnosti: 8/8 60 m
Vlhkost: 100%
Náměšť nad Oslavou (Namest n/O) 27.01.2020 08:00 UTC Zobrazit data
Místo: Náměšť nad Oslavou
Teplota: -2 °C (pocitová: -8.5 °C)
Vítr: 2 m/s z(e) 180°
Počasí: mlha
Dohlednost: 300 m
Zákl. oblačnosti: 8/8 30 m
Vlhkost: 93%
Pardubice (Pardubice) 27.01.2020 21:00 UTC Zobrazit data
Místo: Pardubice
Teplota: 0 °C (pocitová: -8.4 °C)
Vítr: 4 m/s z(e) 90°
Počasí: zataženo
Dohlednost: 10 km
Zákl. oblačnosti: 2/8 2400 m;8/8 4500 m
Vlhkost: 100%
Pec pod Sněžkou (Pec p.Snez) 27.01.2020 21:00 UTC Zobrazit data
Místo: Pec pod Sněžkou
Teplota: 1 °C (pocitová: -7 °C)
Vítr: 4 m/s z(e) 230°
Počasí: zataženo
Dohlednost: 10 km
Zákl. oblačnosti: 8/8 120 m
Vlhkost: 93%
Plzeň město - Mikulka (Plzen/Miku) 27.01.2020 21:00 UTC Zobrazit data
Místo: Plzeň město - Mikulka
Teplota: 3 °C (pocitová: -0.6 °C)
Vítr: 1 m/s z(e) 280°
Počasí: skoro zataženo
Dohlednost: 14 km
Zákl. oblačnosti: 2/8 1440 m;3/8 2400 m
Vlhkost: 93%
Polom (Polom) 27.01.2020 21:00 UTC Zobrazit data
Místo: Polom
Teplota: 0 °C (pocitová: -9.2 °C)
Vítr: 5 m/s z(e) 160°
Počasí: zataženo
Dohlednost: 5 km
Zákl. oblačnosti: 3/8 4500 m
Vlhkost: 100%
Praha - Karlov (Praha/Kar) 27.01.2020 21:00 UTC Zobrazit data
Místo: Praha - Karlov
Teplota: 4 °C (pocitová: -0.8 °C)
Vítr: 2 m/s z(e) 0°
Počasí: zataženo
Dohlednost: 13 km
Zákl. oblačnosti: 8/8 2100 m
Vlhkost: 87%
Praha - Kbely (Praha/Kbe) 27.01.2020 21:00 UTC Zobrazit data
Místo: Praha - Kbely
Teplota: 3 °C (pocitová: -2.1 °C)
Vítr: 2 m/s z(e) 140°
Počasí: skoro zataženo
Dohlednost: 10 km
Zákl. oblačnosti: 5/8 2100 m;7/8 2700 m
Vlhkost: 87%
Praha - Libuš (Praha/Lib) 27.01.2020 21:00 UTC Zobrazit data
Místo: Praha - Libuš
Teplota: 4 °C (pocitová: -0.8 °C)
Vítr: 2 m/s z(e) 0°
Počasí: zataženo
Dohlednost: 16 km
Zákl. oblačnosti: 8/8 2400 m
Vlhkost: 87%
Praha - Ruzyně (Praha/Ru) 27.01.2020 21:00 UTC Zobrazit data
Místo: Praha - Ruzyně
Teplota: 3 °C (pocitová: -3.3 °C)
Vítr: 3 m/s z(e) 160°
Počasí: zataženo
Dohlednost: 15 km
Zákl. oblačnosti: 7/8 1500 m;8/8 3000 m
Vlhkost: 87%
Přibyslav (Pribyslav) 27.01.2020 21:00 UTC Zobrazit data
Místo: Přibyslav
Teplota: -2 °C (pocitová: -12.6 °C)
Vítr: 6 m/s z(e) 120°
Počasí: zataženo
Dohlednost: 1900 m
Zákl. oblačnosti: 8/8 60 m
Vlhkost: 100%
Přimda (Primda) 27.01.2020 21:00 UTC Zobrazit data
Místo: Přimda
Teplota: 2 °C (pocitová: -5.6 °C)
Vítr: 4 m/s z(e) 250°
Počasí: zataženo
Dohlednost: 1000 m
Zákl. oblačnosti: 6/8 60 m;8/8 390 m
Vlhkost: 100%
Šerák (Serak) 27.01.2020 21:00 UTC Zobrazit data
Místo: Šerák
Teplota: -1 °C (pocitová: -12.4 °C)
Vítr: 8 m/s z(e) 230°
Počasí: mlha
Dohlednost: 300 m
Zákl. oblačnosti: 7/8 30 m;7/8 6300 m
Vlhkost: 100%
Svratouch (Svratouch) 27.01.2020 21:00 UTC Zobrazit data
Místo: Svratouch
Teplota: 0 °C (pocitová: -10.9 °C)
Vítr: 8 m/s z(e) 190°
Počasí: zataženo
Dohlednost: 17 km
Zákl. oblačnosti: 8/8 4500 m
Vlhkost: 100%
Temelín (Temelin) 27.01.2020 21:00 UTC Zobrazit data
Místo: Temelín
Teplota: 4 °C (pocitová: -0.8 °C)
Vítr: 2 m/s z(e) 190°
Počasí: zataženo
Dohlednost: 28 km
Zákl. oblačnosti: 8/8 2100 m
Vlhkost: 81%
Ústí nad Labem - Kočkov (Usti n/L) 27.01.2020 21:00 UTC Zobrazit data
Místo: Ústí nad Labem - Kočkov
Teplota: 1 °C (pocitová: -7 °C)
Vítr: 4 m/s z(e) 200°
Počasí: zataženo
Dohlednost: 2000 m
Zákl. oblačnosti: 2/8 120 m;8/8 1260 m
Vlhkost: 100%
Ústí nad Orlicí (Usti n/O) 27.01.2020 21:00 UTC Zobrazit data
Místo: Ústí nad Orlicí
Teplota: 0 °C (pocitová: -7.3 °C)
Vítr: 3 m/s z(e) 120°
Počasí: zataženo
Dohlednost: 5 km
Zákl. oblačnosti: 8/8 90 m
Vlhkost: 100%
Aalborg (EKYT) 27.01.2020 20:50 UTC Zobrazit METAR
EKYT 272050Z AUTO 18009KT 9999 SCT060/// BKN075/// BKN095/// 05/04 Q0996 TEMPO 5000 -SHRA BKN012 SCT015CB
Aarhus (EKAH) 24.01.2020 16:50 UTC Zobrazit METAR
EKAH 241650Z 24007KT 210V270 3500 BR BKN005 07/07 Q1015
Abu Dhabi (OMAA) 27.01.2020 21:00 UTC Zobrazit METAR
OMAA 272100Z 28007KT 9999 SCT045 18/10 Q1020 NOSIG
Abuja (DNAA) 27.01.2020 21:00 UTC Zobrazit METAR
DNAA 272100Z 07002KT 5000 HZ NSC 24/09 Q1014 NOSIG
Accra (DGAA) 27.01.2020 16:00 UTC Zobrazit METAR
DGAA 271600Z 15006KT 110V180 3500 HZ NSC 31/20 Q1008 NOSIG
Addis Abeba (HAAB) 27.01.2020 15:00 UTC Zobrazit METAR
HAAB 271500Z 20010KT 9999 BKN025 19/12 Q1025
Agana (PGUM) 27.01.2020 20:54 UTC Zobrazit METAR
PGUM 272054Z 08007KT 10SM CLR 24/22 A2991 RMK AO2 RAE03 SLP120 P0000 60004 T02440222 53009
Ahe Island (NTHE) Zatím nenačteno  
Akureyri (BIAR) 27.01.2020 21:00 UTC Zobrazit METAR
BIAR 272100Z VRB04KT CAVOK M09/M12 Q0978 R01/490195 RMK WIND VADLAHEIDI 12311KT
Almaty (UAAA) Zatím nenačteno  
Amman (OJAM) 27.01.2020 21:00 UTC Zobrazit METAR
OJAM 272100Z 00000KT 6000 NSC 07/02 Q1022 NOSIG
Amsterdam (EHAM) 27.01.2020 20:55 UTC Zobrazit METAR
EHAM 272055Z 16013KT 7000 -RADZ FEW008 SCT015 BKN038 08/07 Q0994 BECMG BKN015
Antananarivo (FMMI) 27.01.2020 21:00 UTC Zobrazit METAR
FMMI 272100Z 00000KT 9999 FEW010 BKN017 19/19 Q1018 NOSIG
1 2 3 ... 9 Další
Reklama

Počasí na Váš email

Emaily jsou bez reklamy a bez spamu



Odhlásit newsletter

Reklama


Lunární kalendář

  • 02.02.
  • 09.02.
  • 15.02.
  • 23.02.



Reklama


Reklama
Povinné ručení
Reklama



Reklama